Andersen AFB, Guam
Current Conditions -  °F | °C
As of 10:08 PM on Friday 24 Oct 2014 (Local Time) from PGUA Reporting Station
Broken Clouds Broken Clouds  
Wind Chill: 79°   Ceiling: 1500
Heat Index: 82°   Visibility: 10mi
Dew Point: 75°   Wind: 9mph
Humidity: 89%   Direction: 100°E
Pressure: 29.93"   Gusts: NA
Location:  13.58°N, 144.92°E
Report Text: PGUA 241208Z AUTO 10008KT 10SM BKN015 26/24 A2993 RMK AO2 RAB1158E1209 $
Loading
Personal Weather Stations






























Interactive Weather Map New forecast layout! Learn more

10-Day Weather Forecast

Advertisements
Track Severe Weather on mobile